Time;durP1;ratioP1;P1;durP2;ratioP2;P2;SDS_P1;SDS_P2;PMS_P1;PMS_P2;Temp;Humidity;BMP_temperature;BMP_pressure;BME280_temperature;BME280_humidity;BME280_pressure;Samples;Min_cycle;Max_cycle;Signal;HPM_P1;HPM_P2
2022/01/13 00:01:17;;;;;;;50.22;22.35;;;;;;;;;;5088837;28;20067;-68
2022/01/13 00:03:43;;;;;;;44.53;19.23;;;;;;;;;;5089706;28;20043;-68
2022/01/13 00:06:08;;;;;;;51.08;20.85;;;;;;;;;;5089523;28;20088;-68
2022/01/13 00:08:34;;;;;;;46.35;19.95;;;;;;;;;;5089705;28;20492;-68
2022/01/13 00:10:59;;;;;;;42.20;18.75;;;;;;;;;;5089286;28;20495;-69
2022/01/13 00:13:31;;;;;;;48.80;19.77;;;;;;;;;;5088013;28;20101;-68
2022/01/13 00:24:37;;;;;;;48.72;20.08;;;;;;;;;;5059501;28;20073;-68
2022/01/13 00:27:09;;;;;;;68.18;19.83;;;;;;;;;;5089298;28;20028;-68
2022/01/13 00:29:39;;;;;;;38.25;17.10;;;;;;;;;;5088749;28;20406;-68
2022/01/13 00:32:04;;;;;;;54.42;20.70;;;;;;;;;;5086813;28;20524;-68
2022/01/13 00:34:29;;;;;;;50.65;21.00;;;;;;;;;;5087481;28;20055;-68
2022/01/13 00:36:55;;;;;;;40.38;18.13;;;;;;;;;;5089010;28;20144;-68
2022/01/13 00:39:20;;;;;;;42.10;18.67;;;;;;;;;;5089055;28;20114;-68
2022/01/13 00:41:45;;;;;;;48.88;20.05;;;;;;;;;;5088871;28;20038;-68
2022/01/13 00:44:11;;;;;;;41.25;17.50;;;;;;;;;;5088842;28;20024;-68
2022/01/13 00:46:42;;;;;;;42.17;19.10;;;;;;;;;;5070533;28;20020;-68
2022/01/13 00:49:08;;;;;;;41.35;18.33;;;;;;;;;;5088717;28;20046;-68
2022/01/13 00:51:34;;;;;;;49.05;20.00;;;;;;;;;;5087346;28;20050;-68
2022/01/13 00:54:04;;;;;;;53.60;21.48;;;;;;;;;;5070526;28;20051;-68
2022/01/13 00:56:30;;;;;;;41.35;17.67;;;;;;;;;;5087990;28;20393;-68
2022/01/13 00:58:55;;;;;;;71.18;20.02;;;;;;;;;;5087210;28;20099;-67
2022/01/13 01:01:21;;;;;;;50.35;19.67;;;;;;;;;;5087812;28;20040;-68
2022/01/13 01:03:46;;;;;;;46.92;19.48;;;;;;;;;;5087362;28;20024;-68
2022/01/13 01:06:11;;;;;;;50.03;20.50;;;;;;;;;;5087243;28;20032;-68
2022/01/13 01:08:37;;;;;;;46.40;19.25;;;;;;;;;;5088414;28;20020;-68
2022/01/13 01:11:03;;;;;;;52.92;18.80;;;;;;;;;;5086941;28;20032;-69
2022/01/13 01:13:32;;;;;;;45.60;18.90;;;;;;;;;;5070126;28;20024;-68
2022/01/13 01:15:59;;;;;;;37.05;17.42;;;;;;;;;;5086821;28;20089;-68
2022/01/13 01:28:49;;;;;;;53.15;19.77;;;;;;;;;;5086863;28;20031;-68
2022/01/13 01:31:15;;;;;;;47.15;19.80;;;;;;;;;;5085718;28;20032;-68
2022/01/13 01:33:50;;;;;;;52.25;21.60;;;;;;;;;;5086688;28;20027;-68
2022/01/13 01:36:16;;;;;;;47.60;19.67;;;;;;;;;;5087754;28;20032;-68
2022/01/13 01:38:46;;;;;;;54.40;22.00;;;;;;;;;;5087685;28;20063;-68
2022/01/13 01:41:11;;;;;;;58.72;21.42;;;;;;;;;;5086337;28;20035;-68
2022/01/13 01:43:36;;;;;;;68.53;21.45;;;;;;;;;;5086290;28;20028;-68
2022/01/13 01:46:02;;;;;;;78.55;20.17;;;;;;;;;;5086309;28;20447;-68
2022/01/13 01:48:29;;;;;;;73.75;19.90;;;;;;;;;;5086247;28;20027;-68
2022/01/13 01:50:58;;;;;;;49.92;19.40;;;;;;;;;;5087566;28;20028;-68
2022/01/13 01:53:24;;;;;;;52.38;20.83;;;;;;;;;;5087827;28;20020;-68
2022/01/13 01:55:49;;;;;;;51.00;18.48;;;;;;;;;;5069414;28;20402;-68
2022/01/13 01:58:15;;;;;;;43.17;17.40;;;;;;;;;;5087423;28;20028;-68
2022/01/13 02:00:40;;;;;;;43.03;18.73;;;;;;;;;;5085211;28;20047;-68
2022/01/13 02:03:05;;;;;;;67.75;19.02;;;;;;;;;;5086960;28;20486;-69
2022/01/13 02:05:31;;;;;;;48.80;21.60;;;;;;;;;;5086163;28;20042;-68
2022/01/13 02:07:56;;;;;;;44.28;18.05;;;;;;;;;;5085488;28;20039;-68
2022/01/13 02:10:21;;;;;;;55.97;18.83;;;;;;;;;;5085789;28;20030;-68
2022/01/13 02:12:50;;;;;;;39.33;17.38;;;;;;;;;;5079782;28;20021;-68
2022/01/13 02:18:13;;;;;;;40.80;17.63;;;;;;;;;;5043625;28;20131;-68
2022/01/13 02:20:46;;;;;;;36.72;17.55;;;;;;;;;;5067133;28;20099;-68
2022/01/13 02:23:11;;;;;;;35.92;16.30;;;;;;;;;;5066958;28;20020;-67
2022/01/13 02:25:36;;;;;;;33.28;15.73;;;;;;;;;;5067461;28;20544;-68
2022/01/13 02:28:02;;;;;;;44.95;17.35;;;;;;;;;;5065761;28;20028;-68
2022/01/13 02:30:27;;;;;;;34.90;16.95;;;;;;;;;;5064816;28;20098;-68
2022/01/13 02:32:52;;;;;;;45.40;16.95;;;;;;;;;;5067320;28;20028;-68
2022/01/13 02:35:18;;;;;;;43.40;17.15;;;;;;;;;;5066973;28;20043;-67
2022/01/13 02:37:43;;;;;;;43.35;19.35;;;;;;;;;;5067408;28;20078;-68
2022/01/13 02:40:09;;;;;;;38.08;17.85;;;;;;;;;;5066557;28;20020;-68
2022/01/13 02:42:34;;;;;;;42.95;19.05;;;;;;;;;;5066922;28;20028;-68
2022/01/13 02:45:02;;;;;;;45.83;18.23;;;;;;;;;;5067165;28;20024;-68
2022/01/13 02:50:10;;;;;;;45.75;19.15;;;;;;;;;;5067267;28;20036;-68
2022/01/13 02:52:36;;;;;;;41.60;18.13;;;;;;;;;;5065639;28;20021;-67
2022/01/13 02:55:01;;;;;;;38.63;17.52;;;;;;;;;;5065670;28;20028;-68
2022/01/13 02:57:27;;;;;;;41.72;18.23;;;;;;;;;;5066934;28;20337;-68
2022/01/13 02:59:52;;;;;;;41.75;16.45;;;;;;;;;;5048865;28;20131;-68
2022/01/13 03:02:17;;;;;;;37.33;16.10;;;;;;;;;;5066045;28;20388;-67
2022/01/13 03:04:49;;;;;;;39.72;17.33;;;;;;;;;;5064916;28;20115;-68
2022/01/13 03:07:14;;;;;;;35.35;15.52;;;;;;;;;;5066823;28;20066;-68
2022/01/13 03:09:41;;;;;;;35.33;16.73;;;;;;;;;;5049058;28;20036;-68
2022/01/13 03:12:07;;;;;;;36.03;16.42;;;;;;;;;;5048705;28;20013;-69
2022/01/13 03:14:32;;;;;;;34.08;14.88;;;;;;;;;;5066672;28;20071;-68
2022/01/13 03:16:57;;;;;;;43.67;16.55;;;;;;;;;;5065247;28;20037;-68
2022/01/13 03:19:23;;;;;;;40.72;17.10;;;;;;;;;;5068325;28;20025;-68
2022/01/13 03:21:48;;;;;;;41.17;16.60;;;;;;;;;;5070339;28;20029;-69
2022/01/13 03:24:13;;;;;;;46.42;18.00;;;;;;;;;;5052238;28;20455;-68
2022/01/13 03:26:39;;;;;;;37.75;16.35;;;;;;;;;;5068863;28;20127;-67
2022/01/13 03:29:15;;;;;;;40.00;16.42;;;;;;;;;;5070250;28;20027;-68
2022/01/13 03:31:41;;;;;;;41.65;17.05;;;;;;;;;;5068055;28;20174;-68
2022/01/13 03:34:06;;;;;;;39.65;16.60;;;;;;;;;;5052203;28;20096;-68
2022/01/13 03:36:32;;;;;;;36.90;15.82;;;;;;;;;;5070203;28;20028;-68
2022/01/13 03:38:57;;;;;;;42.05;16.83;;;;;;;;;;5051973;28;20427;-67
2022/01/13 03:41:23;;;;;;;40.78;17.45;;;;;;;;;;5051669;28;20051;-67
2022/01/13 03:43:51;;;;;;;41.85;17.42;;;;;;;;;;5070036;28;20052;-68
2022/01/13 03:46:16;;;;;;;43.35;17.05;;;;;;;;;;5068923;28;20402;-68
2022/01/13 03:48:43;;;;;;;44.15;17.08;;;;;;;;;;5068415;28;20036;-68
2022/01/13 03:51:08;;;;;;;63.70;18.25;;;;;;;;;;5051896;28;20028;-68
2022/01/13 03:54:02;;;;;;;58.25;19.27;;;;;;;;;;5069684;28;20027;-68
2022/01/13 03:56:42;;;;;;;39.70;17.63;;;;;;;;;;5069686;28;20126;-68
2022/01/13 03:59:30;;;;;;;50.85;18.58;;;;;;;;;;5069514;28;20021;-68
2022/01/13 04:02:06;;;;;;;51.05;15.32;;;;;;;;;;5068751;28;20047;-68
2022/01/13 04:04:42;;;;;;;40.22;16.60;;;;;;;;;;5068307;28;20074;-68
2022/01/13 04:07:10;;;;;;;41.38;15.60;;;;;;;;;;5052183;28;20036;-68
2022/01/13 04:09:35;;;;;;;44.55;18.25;;;;;;;;;;5069360;28;20071;-69
2022/01/13 04:12:04;;;;;;;40.92;17.70;;;;;;;;;;5069079;28;20110;-67
2022/01/13 04:14:37;;;;;;;40.10;17.35;;;;;;;;;;5068289;28;20028;-68
2022/01/13 04:17:03;;;;;;;43.77;17.83;;;;;;;;;;5068216;28;20032;-68
2022/01/13 04:19:28;;;;;;;36.67;16.63;;;;;;;;;;5069319;28;20253;-68
2022/01/13 04:21:54;;;;;;;39.70;16.48;;;;;;;;;;5069382;28;20028;-68
2022/01/13 04:24:19;;;;;;;43.83;18.38;;;;;;;;;;5067972;28;20020;-68
2022/01/13 04:26:45;;;;;;;43.13;18.40;;;;;;;;;;5069237;28;20115;-68
2022/01/13 04:31:39;;;;;;;53.58;20.27;;;;;;;;;;5065693;28;20454;-69
2022/01/13 04:34:04;;;;;;;47.58;18.33;;;;;;;;;;5067556;28;20027;-68
2022/01/13 04:36:29;;;;;;;49.60;19.05;;;;;;;;;;5068892;28;20099;-68
2022/01/13 04:38:55;;;;;;;54.42;20.08;;;;;;;;;;5068581;28;20055;-68
2022/01/13 04:41:33;;;;;;;61.80;20.17;;;;;;;;;;5067474;28;20052;-67
2022/01/13 04:43:59;;;;;;;51.60;19.42;;;;;;;;;;5067711;28;20024;-68
2022/01/13 04:46:24;;;;;;;42.35;17.08;;;;;;;;;;5050955;28;20085;-68
2022/01/13 04:48:49;;;;;;;45.13;18.77;;;;;;;;;;5067374;28;20034;-68
2022/01/13 04:51:15;;;;;;;38.08;16.83;;;;;;;;;;5050642;28;20028;-68
2022/01/13 04:53:40;;;;;;;35.83;15.60;;;;;;;;;;5067477;28;20025;-68
2022/01/13 04:56:11;;;;;;;35.35;14.73;;;;;;;;;;5067439;28;20106;-68
2022/01/13 04:58:36;;;;;;;54.55;17.70;;;;;;;;;;5068307;28;20167;-68
2022/01/13 05:01:02;;;;;;;39.75;15.65;;;;;;;;;;5067659;28;20131;-68
2022/01/13 05:03:27;;;;;;;41.05;16.60;;;;;;;;;;5067021;28;20024;-67
2022/01/13 05:05:53;;;;;;;33.13;14.63;;;;;;;;;;5068715;28;20126;-68
2022/01/13 05:08:18;;;;;;;34.13;15.15;;;;;;;;;;5066826;28;20028;-68
2022/01/13 05:10:43;;;;;;;36.70;15.73;;;;;;;;;;5068369;28;20402;-68
2022/01/13 05:13:10;;;;;;;26.70;13.32;;;;;;;;;;5067295;28;20475;-68
2022/01/13 05:15:38;;;;;;;32.67;14.55;;;;;;;;;;5068007;28;20368;-68
2022/01/13 05:18:41;;;;;;;27.13;13.20;;;;;;;;;;5067050;28;20016;-68
2022/01/13 05:20:59;;;;;;;33.55;14.63;;;;;;;;;;5048488;28;20235;-70
2022/01/13 05:23:24;;;;;;;36.20;14.68;;;;;;;;;;5050347;28;20025;-70
2022/01/13 05:25:49;;;;;;;35.45;15.30;;;;;;;;;;5050689;28;20035;-70
2022/01/13 05:28:15;;;;;;;27.90;12.80;;;;;;;;;;5050058;28;20074;-70
2022/01/13 05:30:40;;;;;;;32.28;14.80;;;;;;;;;;5032239;28;20045;-70
2022/01/13 05:33:06;;;;;;;36.08;15.20;;;;;;;;;;5051199;28;20020;-70
2022/01/13 05:35:31;;;;;;;35.25;15.43;;;;;;;;;;5051989;28;20032;-70
2022/01/13 05:37:56;;;;;;;36.90;16.23;;;;;;;;;;5032748;28;20031;-70
2022/01/13 05:40:22;;;;;;;37.28;14.75;;;;;;;;;;5046716;28;20075;-70
2022/01/13 05:42:48;;;;;;;39.55;15.73;;;;;;;;;;5032295;28;20266;-70
2022/01/13 05:45:18;;;;;;;35.22;15.48;;;;;;;;;;5037574;28;20036;-70
2022/01/13 05:47:44;;;;;;;38.25;15.18;;;;;;;;;;5047559;28;20093;-70
2022/01/13 05:50:10;;;;;;;32.00;14.40;;;;;;;;;;5048686;28;20029;-70
2022/01/13 05:52:35;;;;;;;37.90;15.32;;;;;;;;;;5049172;28;20032;-70
2022/01/13 05:55:03;;;;;;;37.58;16.85;;;;;;;;;;5055867;28;20029;-70
2022/01/13 05:57:28;;;;;;;34.00;14.95;;;;;;;;;;5052570;28;20409;-70
2022/01/13 05:59:53;;;;;;;33.33;14.88;;;;;;;;;;5049821;28;20029;-70
2022/01/13 06:02:19;;;;;;;28.83;13.15;;;;;;;;;;5052378;28;20038;-70
2022/01/13 06:04:44;;;;;;;31.75;14.05;;;;;;;;;;5046079;28;20028;-70
2022/01/13 06:07:09;;;;;;;31.52;14.52;;;;;;;;;;5030852;28;20113;-70
2022/01/13 06:09:34;;;;;;;29.48;13.90;;;;;;;;;;5051960;28;20020;-70
2022/01/13 06:12:02;;;;;;;34.95;15.02;;;;;;;;;;5051750;28;20078;-70
2022/01/13 06:14:28;;;;;;;32.88;15.57;;;;;;;;;;5065496;28;20033;-70
2022/01/13 06:16:53;;;;;;;37.92;16.92;;;;;;;;;;5047803;28;20087;-70
2022/01/13 06:19:18;;;;;;;33.03;14.95;;;;;;;;;;5036414;28;20037;-70
2022/01/13 06:21:44;;;;;;;33.95;15.48;;;;;;;;;;5053216;28;20032;-70
2022/01/13 06:24:09;;;;;;;32.30;14.40;;;;;;;;;;5055002;28;20032;-70
2022/01/13 06:26:34;;;;;;;35.67;15.27;;;;;;;;;;5034775;28;20123;-70
2022/01/13 06:29:00;;;;;;;35.80;14.98;;;;;;;;;;5051669;28;20025;-70
2022/01/13 06:31:25;;;;;;;35.20;14.80;;;;;;;;;;5053338;28;20075;-70
2022/01/13 06:33:50;;;;;;;26.38;12.80;;;;;;;;;;5053070;28;20120;-70
2022/01/13 06:36:16;;;;;;;32.97;14.15;;;;;;;;;;5048122;28;20108;-70
2022/01/13 06:38:48;;;;;;;33.22;13.98;;;;;;;;;;5065631;28;20111;-70
2022/01/13 06:41:13;;;;;;;33.35;13.27;;;;;;;;;;5049991;28;20082;-70
2022/01/13 06:43:39;;;;;;;30.35;13.93;;;;;;;;;;5043486;28;20474;-69
2022/01/13 06:46:04;;;;;;;26.95;13.45;;;;;;;;;;5046077;28;20208;-69
2022/01/13 06:48:29;;;;;;;27.10;11.77;;;;;;;;;;5044844;28;20035;-68
2022/01/13 06:50:55;;;;;;;30.20;12.70;;;;;;;;;;5045212;28;20186;-69
2022/01/13 06:53:21;;;;;;;38.65;13.23;;;;;;;;;;5050971;28;20119;-69
2022/01/13 06:55:47;;;;;;;29.17;12.80;;;;;;;;;;5053634;28;20115;-69
2022/01/13 06:58:12;;;;;;;35.25;14.50;;;;;;;;;;5050969;28;20074;-69
2022/01/13 07:00:37;;;;;;;26.55;12.25;;;;;;;;;;5051905;28;20530;-69
2022/01/13 07:03:03;;;;;;;26.88;12.35;;;;;;;;;;5052775;28;20509;-69
2022/01/13 07:05:29;;;;;;;30.95;12.45;;;;;;;;;;5049261;28;20039;-69
2022/01/13 07:07:54;;;;;;;25.98;12.25;;;;;;;;;;5050393;28;20060;-69
2022/01/13 07:10:19;;;;;;;33.17;13.30;;;;;;;;;;5054610;28;20067;-69
2022/01/13 07:12:45;;;;;;;30.45;13.20;;;;;;;;;;5053889;28;20145;-69
2022/01/13 07:15:10;;;;;;;30.73;12.65;;;;;;;;;;5053444;28;20139;-69
2022/01/13 07:17:36;;;;;;;30.63;13.75;;;;;;;;;;5034107;28;20033;-69
2022/01/13 07:20:02;;;;;;;27.60;12.27;;;;;;;;;;5030955;28;20029;-69
2022/01/13 07:22:27;;;;;;;28.48;11.93;;;;;;;;;;5048419;28;20025;-69
2022/01/13 07:24:52;;;;;;;28.48;12.48;;;;;;;;;;5045496;28;20056;-69
2022/01/13 07:27:18;;;;;;;23.20;11.18;;;;;;;;;;5046002;28;20144;-69
2022/01/13 07:29:43;;;;;;;21.42;10.73;;;;;;;;;;5052616;28;20028;-69
2022/01/13 07:32:12;;;;;;;23.63;10.85;;;;;;;;;;5028890;28;20400;-69
2022/01/13 07:34:37;;;;;;;26.95;12.10;;;;;;;;;;5051365;28;20263;-69
2022/01/13 07:37:03;;;;;;;25.50;12.77;;;;;;;;;;5051799;28;20024;-69
2022/01/13 07:39:28;;;;;;;26.45;11.80;;;;;;;;;;5046370;28;20039;-69
2022/01/13 07:41:53;;;;;;;26.83;13.18;;;;;;;;;;5042258;28;20021;-69
2022/01/13 07:44:19;;;;;;;26.45;13.15;;;;;;;;;;5045774;28;20029;-69
2022/01/13 07:46:44;;;;;;;26.10;12.57;;;;;;;;;;5032371;28;20035;-69
2022/01/13 07:49:10;;;;;;;29.08;12.25;;;;;;;;;;5052092;28;20538;-69
2022/01/13 07:51:35;;;;;;;27.30;11.95;;;;;;;;;;5049259;28;20047;-69
2022/01/13 07:54:01;;;;;;;30.73;13.32;;;;;;;;;;5049274;28;20642;-69
2022/01/13 07:56:28;;;;;;;34.65;15.13;;;;;;;;;;5051296;28;20021;-69
2022/01/13 07:58:53;;;;;;;31.88;12.85;;;;;;;;;;5038463;28;20554;-70
2022/01/13 08:01:18;;;;;;;28.40;12.85;;;;;;;;;;5043963;28;20044;-69
2022/01/13 08:03:44;;;;;;;33.45;13.70;;;;;;;;;;5050437;28;21817;-69
2022/01/13 08:06:09;;;;;;;28.90;13.82;;;;;;;;;;5049896;28;20360;-69
2022/01/13 08:08:35;;;;;;;32.15;13.57;;;;;;;;;;5046656;28;20101;-69
2022/01/13 08:11:04;;;;;;;25.17;12.40;;;;;;;;;;5049235;28;20031;-69
2022/01/13 08:13:30;;;;;;;26.48;12.38;;;;;;;;;;5053794;28;20037;-69
2022/01/13 08:15:56;;;;;;;38.17;16.05;;;;;;;;;;5053853;28;20024;-69
2022/01/13 08:21:05;;;;;;;54.58;21.33;;;;;;;;;;5049621;28;20110;-69
2022/01/13 08:23:30;;;;;;;52.88;20.27;;;;;;;;;;5050102;28;20125;-69
2022/01/13 08:25:56;;;;;;;47.65;19.90;;;;;;;;;;5048581;28;20097;-69
2022/01/13 08:28:21;;;;;;;36.38;16.88;;;;;;;;;;5048872;28;20127;-69
2022/01/13 08:30:47;;;;;;;35.78;16.13;;;;;;;;;;5045648;28;20131;-69
2022/01/13 08:33:12;;;;;;;42.00;17.33;;;;;;;;;;5048535;28;20423;-69
2022/01/13 08:35:43;;;;;;;41.40;17.58;;;;;;;;;;5049488;28;20036;-68
2022/01/13 08:38:16;;;;;;;34.17;16.85;;;;;;;;;;5050376;28;20032;-69
2022/01/13 08:40:41;;;;;;;33.58;15.70;;;;;;;;;;5051511;28;20068;-70
2022/01/13 08:43:06;;;;;;;34.55;15.63;;;;;;;;;;5049508;28;20691;-69
2022/01/13 08:45:32;;;;;;;35.58;15.90;;;;;;;;;;5051381;28;20039;-69
2022/01/13 08:47:57;;;;;;;33.15;16.13;;;;;;;;;;5051807;28;20448;-69
2022/01/13 08:50:22;;;;;;;37.60;16.00;;;;;;;;;;5047246;28;21861;-69
2022/01/13 08:52:48;;;;;;;33.17;15.30;;;;;;;;;;5054072;28;20029;-69
2022/01/13 08:55:13;;;;;;;36.63;17.15;;;;;;;;;;5052988;28;20036;-68
2022/01/13 08:57:38;;;;;;;35.70;16.30;;;;;;;;;;5052150;28;20073;-68
2022/01/13 09:00:05;;;;;;;38.92;17.55;;;;;;;;;;5045216;28;20163;-68
2022/01/13 09:02:33;;;;;;;37.33;16.63;;;;;;;;;;5048409;28;20040;-68
2022/01/13 09:05:00;;;;;;;34.42;16.58;;;;;;;;;;5048903;28;20526;-68
2022/01/13 09:07:25;;;;;;;33.17;14.50;;;;;;;;;;5049672;28;20367;-68
2022/01/13 09:09:50;;;;;;;36.55;16.02;;;;;;;;;;5047283;28;20496;-68
2022/01/13 09:12:16;;;;;;;36.88;15.98;;;;;;;;;;5046064;28;20155;-68
2022/01/13 09:14:42;;;;;;;40.03;16.30;;;;;;;;;;5050903;28;20035;-68
2022/01/13 09:17:12;;;;;;;36.47;15.95;;;;;;;;;;5051098;28;20036;-68
2022/01/13 09:19:41;;;;;;;33.03;15.70;;;;;;;;;;5049882;28;20032;-68
2022/01/13 09:22:06;;;;;;;34.13;15.95;;;;;;;;;;5047885;28;20566;-68
2022/01/13 09:24:31;;;;;;;31.83;14.25;;;;;;;;;;5048122;28;20048;-68
2022/01/13 09:26:57;;;;;;;34.63;15.40;;;;;;;;;;5046910;28;20466;-68
2022/01/13 09:29:22;;;;;;;28.08;13.95;;;;;;;;;;5047745;28;20609;-68
2022/01/13 09:31:47;;;;;;;31.63;14.52;;;;;;;;;;5044444;28;20036;-68
2022/01/13 09:34:13;;;;;;;27.63;14.00;;;;;;;;;;5048630;28;20119;-68
2022/01/13 09:36:38;;;;;;;27.67;14.20;;;;;;;;;;5048496;28;20112;-68
2022/01/13 09:39:04;;;;;;;35.03;16.08;;;;;;;;;;5047293;28;21123;-68
2022/01/13 09:41:31;;;;;;;35.47;15.98;;;;;;;;;;5046141;28;20089;-68
2022/01/13 09:43:57;;;;;;;30.83;13.65;;;;;;;;;;5047467;28;20039;-68
2022/01/13 09:46:26;;;;;;;32.28;14.05;;;;;;;;;;5047662;28;20051;-68
2022/01/13 09:48:51;;;;;;;34.25;13.60;;;;;;;;;;5041520;28;20044;-68
2022/01/13 09:51:16;;;;;;;27.33;14.10;;;;;;;;;;5029588;28;20143;-68
2022/01/13 09:53:42;;;;;;;27.30;14.25;;;;;;;;;;5046171;28;20028;-68
2022/01/13 09:56:08;;;;;;;28.45;15.20;;;;;;;;;;5050101;28;20510;-68
2022/01/13 09:58:33;;;;;;;26.00;12.95;;;;;;;;;;5048929;28;20051;-68
2022/01/13 10:00:59;;;;;;;27.38;13.48;;;;;;;;;;5045201;28;20049;-68
2022/01/13 10:03:27;;;;;;;28.88;14.50;;;;;;;;;;5041066;28;20529;-68
2022/01/13 10:05:58;;;;;;;29.42;14.93;;;;;;;;;;5049063;28;20085;-68
2022/01/13 10:08:39;;;;;;;24.98;13.00;;;;;;;;;;5049812;28;20360;-68
2022/01/13 10:11:32;;;;;;;24.35;12.65;;;;;;;;;;5049850;28;20066;-68
2022/01/13 10:14:03;;;;;;;27.63;14.18;;;;;;;;;;5043810;28;20130;-68
2022/01/13 10:16:29;;;;;;;29.75;13.75;;;;;;;;;;5050471;28;20542;-68
2022/01/13 10:18:54;;;;;;;32.22;14.68;;;;;;;;;;5046803;28;20039;-68
2022/01/13 10:21:20;;;;;;;29.27;15.00;;;;;;;;;;5047384;28;20036;-68
2022/01/13 10:24:06;;;;;;;33.03;15.57;;;;;;;;;;5044649;28;20285;-68
2022/01/13 10:26:31;;;;;;;33.65;17.13;;;;;;;;;;5046725;28;20487;-68
2022/01/13 10:28:57;;;;;;;30.48;14.75;;;;;;;;;;5049020;28;20082;-68
2022/01/13 10:31:46;;;;;;;30.52;15.57;;;;;;;;;;5050328;28;20578;-68
2022/01/13 10:34:28;;;;;;;25.92;14.18;;;;;;;;;;5051172;28;20927;-69
2022/01/13 10:37:11;;;;;;;31.13;14.75;;;;;;;;;;5037509;28;20552;-68
2022/01/13 10:40:04;;;;;;;42.78;18.98;;;;;;;;;;5049975;28;20098;-68
2022/01/13 10:44:58;;;;;;;49.80;21.17;;;;;;;;;;5047690;28;20179;-68
2022/01/13 10:47:23;;;;;;;38.58;18.48;;;;;;;;;;5048122;28;20048;-68
2022/01/13 10:49:50;;;;;;;31.85;15.80;;;;;;;;;;5049550;28;20083;-68
2022/01/13 10:52:27;;;;;;;28.90;13.18;;;;;;;;;;5050429;28;20016;-68
2022/01/13 10:54:54;;;;;;;27.15;12.95;;;;;;;;;;5055810;28;20070;-70
2022/01/13 10:57:21;;;;;;;22.85;12.02;;;;;;;;;;5053462;28;20094;-70
2022/01/13 10:59:46;;;;;;;26.67;11.77;;;;;;;;;;5051954;28;20032;-70
2022/01/13 11:02:12;;;;;;;28.63;12.10;;;;;;;;;;5054615;28;20045;-70
2022/01/13 11:04:37;;;;;;;21.23;11.18;;;;;;;;;;5056028;28;20058;-70
2022/01/13 11:07:12;;;;;;;16.45;9.57;;;;;;;;;;5051370;28;20036;-70
2022/01/13 11:09:42;;;;;;;18.92;10.65;;;;;;;;;;5050138;28;20043;-70
2022/01/13 11:12:09;;;;;;;19.85;10.52;;;;;;;;;;5053435;28;20060;-68
2022/01/13 11:14:40;;;;;;;19.33;10.80;;;;;;;;;;5051052;28;20032;-70
2022/01/13 11:17:07;;;;;;;18.17;9.82;;;;;;;;;;5054823;28;20093;-70
2022/01/13 11:19:32;;;;;;;16.90;8.95;;;;;;;;;;5051687;28;20724;-70
2022/01/13 11:21:58;;;;;;;15.75;8.38;;;;;;;;;;5057147;28;20032;-70
2022/01/13 11:24:23;;;;;;;13.30;7.65;;;;;;;;;;5057801;28;20107;-70
2022/01/13 11:26:48;;;;;;;13.98;8.20;;;;;;;;;;5041927;28;20043;-70
2022/01/13 11:29:14;;;;;;;15.18;8.45;;;;;;;;;;5057972;28;20040;-70
2022/01/13 11:31:39;;;;;;;15.55;8.13;;;;;;;;;;5047225;28;20064;-70
2022/01/13 11:34:04;;;;;;;16.40;8.50;;;;;;;;;;5051214;28;20342;-70
2022/01/13 11:36:30;;;;;;;15.55;8.50;;;;;;;;;;5051993;28;20062;-68
2022/01/13 11:39:01;;;;;;;18.30;9.10;;;;;;;;;;5058422;28;20064;-70
2022/01/13 11:41:26;;;;;;;17.45;8.40;;;;;;;;;;5057104;28;20123;-69
2022/01/13 11:43:52;;;;;;;16.70;8.75;;;;;;;;;;5060170;28;20036;-70
2022/01/13 11:46:24;;;;;;;14.50;8.35;;;;;;;;;;5055018;28;20052;-69
2022/01/13 11:49:06;;;;;;;20.45;9.98;;;;;;;;;;5056187;28;20025;-69
2022/01/13 11:51:55;;;;;;;72.97;27.40;;;;;;;;;;5056870;28;20032;-69
2022/01/13 11:54:33;;;;;;;46.60;20.83;;;;;;;;;;5061221;28;20080;-70
2022/01/13 11:57:18;;;;;;;46.30;22.17;;;;;;;;;;5059541;28;20470;-70
2022/01/13 12:00:06;;;;;;;42.33;22.17;;;;;;;;;;5060055;28;20131;-69
2022/01/13 12:02:33;;;;;;;22.80;12.05;;;;;;;;;;5057569;28;20373;-70
2022/01/13 12:05:03;;;;;;;14.18;8.95;;;;;;;;;;5053337;28;20182;-69
2022/01/13 12:07:53;;;;;;;15.45;7.97;;;;;;;;;;5058433;28;20037;-69
2022/01/13 12:10:24;;;;;;;12.30;7.82;;;;;;;;;;5058908;28;20032;-69
2022/01/13 12:12:50;;;;;;;13.80;7.32;;;;;;;;;;5057636;28;20026;-70
2022/01/13 12:15:15;;;;;;;11.30;6.13;;;;;;;;;;5055192;28;20036;-69
2022/01/13 12:17:48;;;;;;;15.10;6.68;;;;;;;;;;5050500;28;20123;-69
2022/01/13 12:20:40;;;;;;;10.95;6.72;;;;;;;;;;5055760;28;20042;-69
2022/01/13 12:23:17;;;;;;;9.90;6.25;;;;;;;;;;5055576;28;20115;-69
2022/01/13 12:25:42;;;;;;;9.45;5.47;;;;;;;;;;5040868;28;21862;-69
2022/01/13 12:28:12;;;;;;;7.40;4.88;;;;;;;;;;5055031;28;20445;-69
2022/01/13 12:30:38;;;;;;;7.93;5.30;;;;;;;;;;5051407;28;20052;-69
2022/01/13 12:33:07;;;;;;;9.07;5.43;;;;;;;;;;5053528;28;20475;-69
2022/01/13 12:35:44;;;;;;;6.25;4.63;;;;;;;;;;5055720;28;20044;-69
2022/01/13 12:38:11;;;;;;;5.47;3.90;;;;;;;;;;5054244;28;20085;-69
2022/01/13 12:40:43;;;;;;;5.85;3.78;;;;;;;;;;5055521;28;20483;-69
2022/01/13 12:46:19;;;;;;;7.47;4.30;;;;;;;;;;5051689;28;20163;-69
2022/01/13 12:48:48;;;;;;;5.90;3.30;;;;;;;;;;5049841;28;20047;-69
2022/01/13 12:51:18;;;;;;;5.00;3.85;;;;;;;;;;5038626;28;20032;-69
2022/01/13 12:53:44;;;;;;;5.57;3.53;;;;;;;;;;5038431;28;20115;-69
2022/01/13 12:56:17;;;;;;;3.92;3.28;;;;;;;;;;5051443;28;20082;-69
2022/01/13 12:58:43;;;;;;;3.97;2.90;;;;;;;;;;5038089;28;20530;-69
2022/01/13 13:01:09;;;;;;;4.30;2.90;;;;;;;;;;5051726;28;20114;-69
2022/01/13 13:03:35;;;;;;;3.47;2.85;;;;;;;;;;5044076;28;20625;-69
2022/01/13 13:06:00;;;;;;;4.47;3.30;;;;;;;;;;5050322;28;20066;-69
2022/01/13 13:08:26;;;;;;;3.78;3.08;;;;;;;;;;5055803;28;20036;-69
2022/01/13 13:10:59;;;;;;;6.78;4.63;;;;;;;;;;5054918;28;20507;-69
2022/01/13 13:13:26;;;;;;;10.18;5.03;;;;;;;;;;5050982;28;20033;-69
2022/01/13 13:16:06;;;;;;;7.63;3.85;;;;;;;;;;5052613;28;20081;-69
2022/01/13 13:18:32;;;;;;;5.45;3.35;;;;;;;;;;5054644;28;20119;-69
2022/01/13 13:20:57;;;;;;;5.03;3.45;;;;;;;;;;5046860;28;20509;-69
2022/01/13 13:23:25;;;;;;;5.20;3.08;;;;;;;;;;5054147;28;20044;-69
2022/01/13 13:25:54;;;;;;;6.30;3.42;;;;;;;;;;5054942;28;20113;-69
2022/01/13 13:28:26;;;;;;;4.18;3.00;;;;;;;;;;5045267;28;20038;-69
2022/01/13 13:30:56;;;;;;;4.07;3.63;;;;;;;;;;5053583;28;20037;-67
2022/01/13 13:33:38;;;;;;;3.45;3.10;;;;;;;;;;5058515;28;20021;-67
2022/01/13 13:36:09;;;;;;;5.40;3.35;;;;;;;;;;5054716;28;20028;-67
2022/01/13 13:38:55;;;;;;;6.45;4.10;;;;;;;;;;5056558;28;20059;-67
2022/01/13 13:41:21;;;;;;;6.97;3.88;;;;;;;;;;5055783;28;20028;-67
2022/01/13 13:43:47;;;;;;;6.88;4.80;;;;;;;;;;5055308;28;20028;-67
2022/01/13 13:46:13;;;;;;;8.13;5.50;;;;;;;;;;5051015;28;20102;-67
2022/01/13 13:48:43;;;;;;;11.88;6.10;;;;;;;;;;5052275;28;20033;-67
2022/01/13 13:51:12;;;;;;;6.93;5.18;;;;;;;;;;5054554;28;20020;-67
2022/01/13 13:53:37;;;;;;;6.85;5.32;;;;;;;;;;5054851;28;20356;-67
2022/01/13 13:56:04;;;;;;;7.63;4.80;;;;;;;;;;5050024;28;20564;-67
2022/01/13 13:58:29;;;;;;;6.88;5.20;;;;;;;;;;5047114;28;20036;-67
2022/01/13 14:01:05;;;;;;;9.32;5.22;;;;;;;;;;5050057;28;20043;-69
2022/01/13 14:03:56;;;;;;;9.70;6.13;;;;;;;;;;5049412;28;20514;-67
2022/01/13 14:06:38;;;;;;;8.85;6.40;;;;;;;;;;5048803;28;20047;-67
2022/01/13 14:09:03;;;;;;;8.65;6.25;;;;;;;;;;5051524;28;21039;-70
2022/01/13 14:11:41;;;;;;;10.73;7.03;;;;;;;;;;5053565;28;20060;-70
2022/01/13 14:14:12;;;;;;;9.73;6.93;;;;;;;;;;5050199;28;20021;-67
2022/01/13 14:16:37;;;;;;;10.35;7.13;;;;;;;;;;5053985;28;20115;-69
2022/01/13 14:19:04;;;;;;;9.55;7.00;;;;;;;;;;5047482;28;20055;-70
2022/01/13 14:21:52;;;;;;;11.13;7.15;;;;;;;;;;5049349;28;20044;-69
2022/01/13 14:24:36;;;;;;;11.40;7.75;;;;;;;;;;5047128;28;20174;-70
2022/01/13 14:27:12;;;;;;;12.23;8.25;;;;;;;;;;5050297;28;20040;-70
2022/01/13 14:29:38;;;;;;;16.60;8.85;;;;;;;;;;5047525;28;20024;-69
2022/01/13 14:32:21;;;;;;;18.75;12.00;;;;;;;;;;5046805;28;20029;-69
2022/01/13 14:34:54;;;;;;;14.57;9.15;;;;;;;;;;5044656;28;20044;-69
2022/01/13 14:37:24;;;;;;;15.20;8.88;;;;;;;;;;5047652;28;20035;-69
2022/01/13 14:40:12;;;;;;;14.45;8.48;;;;;;;;;;5045790;28;20085;-69
2022/01/13 14:42:38;;;;;;;9.88;7.22;;;;;;;;;;5051146;28;20021;-69
2022/01/13 14:45:23;;;;;;;14.88;8.40;;;;;;;;;;5049422;28;20081;-69
2022/01/13 14:47:49;;;;;;;12.82;8.15;;;;;;;;;;5046642;28;20115;-69
2022/01/13 14:50:14;;;;;;;17.38;8.50;;;;;;;;;;5032079;28;20032;-69
2022/01/13 14:52:40;;;;;;;12.00;7.53;;;;;;;;;;5051444;28;20038;-69
2022/01/13 14:55:05;;;;;;;13.73;8.52;;;;;;;;;;5051889;28;20174;-69
2022/01/13 14:57:30;;;;;;;12.52;8.10;;;;;;;;;;5055546;28;20123;-69
2022/01/13 14:59:56;;;;;;;14.77;8.30;;;;;;;;;;5046919;28;20462;-69
2022/01/13 15:02:22;;;;;;;13.95;8.48;;;;;;;;;;5048681;28;20136;-69